Time;durP1;ratioP1;P1;durP2;ratioP2;P2;SDS_P1;SDS_P2;PMS_P1;PMS_P2;Temp;Humidity;BMP_temperature;BMP_pressure;BME280_temperature;BME280_humidity;BME280_pressure;Samples;Min_cycle;Max_cycle;Signal;HPM_P1;HPM_P2
2021/04/01 00:00:58;;;;;;;10.32;3.65;;;;;;;;;;4942135;29;20058;-68
2021/04/01 00:03:24;;;;;;;6.38;3.67;;;;;;;;;;4940808;28;20170;-68
2021/04/01 00:05:49;;;;;;;3.03;2.53;;;;;;;;;;4940002;29;20383;-68
2021/04/01 00:08:15;;;;;;;4.63;3.80;;;;;;;;;;4942086;29;20036;-67
2021/04/01 00:10:41;;;;;;;6.57;4.25;;;;;;;;;;4941105;29;20068;-67
2021/04/01 00:13:07;;;;;;;6.70;4.07;;;;;;;;;;4941623;29;20475;-68
2021/04/01 00:15:33;;;;;;;2.83;2.22;;;;;;;;;;4941269;28;20019;-68
2021/04/01 00:17:59;;;;;;;5.75;3.08;;;;;;;;;;4939852;29;20513;-68
2021/04/01 00:20:24;;;;;;;4.38;3.13;;;;;;;;;;4942186;28;20102;-67
2021/04/01 00:22:50;;;;;;;14.23;3.90;;;;;;;;;;4940738;29;20047;-68
2021/04/01 00:25:16;;;;;;;12.07;7.70;;;;;;;;;;4940961;29;20019;-68
2021/04/01 00:27:42;;;;;;;23.27;12.32;;;;;;;;;;4940611;29;20040;-67
2021/04/01 00:30:08;;;;;;;10.73;7.82;;;;;;;;;;4941418;29;20020;-68
2021/04/01 00:32:33;;;;;;;18.50;8.00;;;;;;;;;;4940494;28;20038;-68
2021/04/01 00:34:58;;;;;;;11.88;8.20;;;;;;;;;;4947298;29;20023;-68
2021/04/01 00:37:24;;;;;;;13.30;9.38;;;;;;;;;;4947574;28;20153;-68
2021/04/01 00:39:49;;;;;;;11.90;9.85;;;;;;;;;;4940747;29;20028;-70
2021/04/01 00:42:14;;;;;;;11.27;7.65;;;;;;;;;;4940587;28;20086;-70
2021/04/01 00:44:40;;;;;;;9.77;8.60;;;;;;;;;;4941847;29;20099;-69
2021/04/01 00:47:06;;;;;;;11.63;8.88;;;;;;;;;;4945827;28;20035;-70
2021/04/01 00:49:31;;;;;;;18.35;7.47;;;;;;;;;;4946495;28;20055;-69
2021/04/01 00:51:56;;;;;;;12.43;7.82;;;;;;;;;;4941435;29;20074;-70
2021/04/01 00:54:22;;;;;;;11.98;7.70;;;;;;;;;;4942476;28;20094;-69
2021/04/01 00:56:47;;;;;;;10.07;6.80;;;;;;;;;;4940399;29;20031;-70
2021/04/01 00:59:13;;;;;;;14.10;7.50;;;;;;;;;;4947796;28;20102;-70
2021/04/01 01:01:45;;;;;;;7.43;6.25;;;;;;;;;;4945152;28;20047;-70
2021/04/01 01:04:11;;;;;;;7.88;5.95;;;;;;;;;;4940788;29;20115;-69
2021/04/01 01:06:36;;;;;;;7.88;6.07;;;;;;;;;;4944759;28;20122;-70
2021/04/01 01:09:03;;;;;;;14.07;6.13;;;;;;;;;;4947160;29;20455;-71
2021/04/01 01:11:29;;;;;;;10.20;5.38;;;;;;;;;;4946463;29;20015;-70
2021/04/01 01:13:54;;;;;;;5.45;4.25;;;;;;;;;;4946149;29;20023;-71
2021/04/01 01:16:19;;;;;;;8.02;3.50;;;;;;;;;;4947585;28;20067;-71
2021/04/01 01:18:45;;;;;;;8.88;4.97;;;;;;;;;;4944576;29;20028;-70
2021/04/01 01:21:10;;;;;;;11.30;9.13;;;;;;;;;;4947467;28;20640;-70
2021/04/01 01:23:36;;;;;;;19.08;12.52;;;;;;;;;;4942894;28;20027;-71
2021/04/01 01:26:01;;;;;;;23.92;18.52;;;;;;;;;;4941354;29;20411;-70
2021/04/01 01:28:27;;;;;;;9.13;7.05;;;;;;;;;;4945335;29;20038;-71
2021/04/01 01:30:52;;;;;;;8.70;4.90;;;;;;;;;;4945394;29;20048;-71
2021/04/01 01:33:19;;;;;;;10.73;8.45;;;;;;;;;;4940122;28;20026;-71
2021/04/01 01:35:46;;;;;;;9.02;6.80;;;;;;;;;;4941945;29;20016;-71
2021/04/01 01:38:12;;;;;;;13.32;7.97;;;;;;;;;;4947315;28;20487;-71
2021/04/01 01:40:37;;;;;;;14.30;11.43;;;;;;;;;;4944943;28;20031;-71
2021/04/01 01:43:04;;;;;;;8.68;6.22;;;;;;;;;;4946962;29;20102;-71
2021/04/01 01:45:30;;;;;;;10.70;5.60;;;;;;;;;;4945912;28;20082;-71
2021/04/01 01:47:56;;;;;;;5.43;4.15;;;;;;;;;;4945944;29;20507;-71
2021/04/01 01:50:23;;;;;;;4.97;3.78;;;;;;;;;;4946581;28;20028;-70
2021/04/01 01:52:48;;;;;;;4.90;2.97;;;;;;;;;;4945145;29;20098;-71
2021/04/01 01:55:14;;;;;;;3.60;2.53;;;;;;;;;;4945400;28;20023;-71
2021/04/01 01:57:39;;;;;;;4.93;3.05;;;;;;;;;;4940542;29;20044;-71
2021/04/01 02:00:06;;;;;;;15.65;8.27;;;;;;;;;;4946715;29;20110;-71
2021/04/01 02:02:31;;;;;;;8.23;4.82;;;;;;;;;;4943863;29;20059;-70
2021/04/01 02:04:56;;;;;;;7.22;5.80;;;;;;;;;;4945683;29;20024;-70
2021/04/01 02:07:22;;;;;;;10.13;5.15;;;;;;;;;;4946543;28;20035;-70
2021/04/01 02:09:48;;;;;;;8.18;4.43;;;;;;;;;;4944079;29;20116;-70
2021/04/01 02:12:17;;;;;;;7.57;5.97;;;;;;;;;;4947002;28;20090;-71
2021/04/01 02:14:43;;;;;;;5.45;4.20;;;;;;;;;;4943762;28;20034;-71
2021/04/01 02:17:09;;;;;;;5.68;4.70;;;;;;;;;;4946924;28;20031;-71
2021/04/01 02:19:34;;;;;;;10.45;5.72;;;;;;;;;;4941190;28;20046;-70
2021/04/01 02:21:59;;;;;;;9.95;3.53;;;;;;;;;;4944577;29;20471;-70
2021/04/01 02:24:25;;;;;;;20.60;4.15;;;;;;;;;;4941789;28;20102;-71
2021/04/01 02:26:53;;;;;;;5.05;2.67;;;;;;;;;;4934169;29;20632;-71
2021/04/01 02:29:19;;;;;;;5.90;2.97;;;;;;;;;;4946704;28;20150;-71
2021/04/01 02:31:44;;;;;;;4.60;2.65;;;;;;;;;;4938165;29;20103;-71
2021/04/01 02:34:09;;;;;;;3.65;2.65;;;;;;;;;;4946835;28;20027;-71
2021/04/01 02:36:35;;;;;;;5.47;3.03;;;;;;;;;;4944480;28;20046;-70
2021/04/01 02:39:00;;;;;;;4.85;3.15;;;;;;;;;;4945684;29;20440;-70
2021/04/01 02:41:25;;;;;;;4.30;3.40;;;;;;;;;;4945858;28;20106;-70
2021/04/01 02:43:50;;;;;;;8.30;4.15;;;;;;;;;;4944542;29;20031;-70
2021/04/01 02:46:16;;;;;;;5.22;3.83;;;;;;;;;;4946368;28;20035;-70
2021/04/01 02:48:41;;;;;;;5.55;3.00;;;;;;;;;;4943531;28;20024;-71
2021/04/01 02:51:06;;;;;;;5.95;4.07;;;;;;;;;;4946313;29;20027;-71
2021/04/01 02:53:32;;;;;;;9.00;3.28;;;;;;;;;;4943736;28;20732;-70
2021/04/01 02:55:57;;;;;;;8.32;2.80;;;;;;;;;;4939874;29;20031;-71
2021/04/01 02:58:23;;;;;;;6.82;2.78;;;;;;;;;;4941307;29;20094;-71
2021/04/01 03:00:48;;;;;;;7.88;2.25;;;;;;;;;;4941819;29;20049;-70
2021/04/01 03:03:24;;;;;;;4.60;2.78;;;;;;;;;;4946356;28;20415;-64
2021/04/01 03:05:50;;;;;;;5.38;2.47;;;;;;;;;;4942104;29;20126;-63
2021/04/01 03:08:15;;;;;;;8.80;2.95;;;;;;;;;;4946883;28;20467;-64
2021/04/01 03:10:40;;;;;;;5.28;4.03;;;;;;;;;;4947080;28;20149;-63
2021/04/01 03:13:05;;;;;;;8.15;3.38;;;;;;;;;;4949487;29;20039;-64
2021/04/01 03:15:31;;;;;;;4.63;2.83;;;;;;;;;;4945617;28;20047;-63
2021/04/01 03:17:56;;;;;;;4.72;3.40;;;;;;;;;;4949027;29;20043;-64
2021/04/01 03:20:22;;;;;;;10.68;3.33;;;;;;;;;;4949317;28;20023;-64
2021/04/01 03:22:47;;;;;;;4.05;2.50;;;;;;;;;;4947328;29;20110;-64
2021/04/01 03:25:13;;;;;;;5.55;2.88;;;;;;;;;;4948341;28;20066;-64
2021/04/01 03:27:38;;;;;;;4.78;2.58;;;;;;;;;;4943904;29;20505;-70
2021/04/01 03:30:12;;;;;;;4.70;3.78;;;;;;;;;;4946360;29;20094;-70
2021/04/01 03:32:39;;;;;;;6.40;4.43;;;;;;;;;;4945656;29;20036;-70
2021/04/01 03:35:05;;;;;;;11.55;4.13;;;;;;;;;;4949123;29;20027;-70
2021/04/01 03:37:30;;;;;;;4.85;4.30;;;;;;;;;;4948154;28;20093;-70
2021/04/01 03:39:56;;;;;;;12.25;3.55;;;;;;;;;;4947919;29;20028;-70
2021/04/01 03:42:21;;;;;;;11.30;2.42;;;;;;;;;;4949363;28;20046;-71
2021/04/01 03:44:47;;;;;;;5.30;2.17;;;;;;;;;;4941048;29;20403;-71
2021/04/01 03:47:12;;;;;;;6.43;3.47;;;;;;;;;;4949423;29;20130;-70
2021/04/01 03:49:38;;;;;;;5.07;3.35;;;;;;;;;;4944610;28;20019;-70
2021/04/01 03:52:03;;;;;;;3.25;2.35;;;;;;;;;;4948548;29;20034;-70
2021/04/01 03:54:28;;;;;;;6.72;3.97;;;;;;;;;;4948206;28;20024;-66
2021/04/01 03:56:54;;;;;;;9.00;2.92;;;;;;;;;;4942326;29;20042;-66
2021/04/01 03:59:23;;;;;;;4.78;3.67;;;;;;;;;;4948829;28;20936;-66
2021/04/01 04:02:04;;;;;;;9.00;3.22;;;;;;;;;;4946556;29;20582;-67
2021/04/01 04:04:42;;;;;;;3.67;2.83;;;;;;;;;;4947847;28;20031;-67
2021/04/01 04:12:47;;;;;;;6.47;2.78;;;;;;;;;;4945601;28;20024;-67
2021/04/01 04:15:16;;;;;;;6.15;3.22;;;;;;;;;;4949163;28;20111;-66
2021/04/01 04:17:42;;;;;;;9.13;2.65;;;;;;;;;;4946380;28;20036;-66
2021/04/01 04:20:08;;;;;;;11.48;1.98;;;;;;;;;;4948231;28;20486;-67
2021/04/01 04:22:33;;;;;;;13.43;2.90;;;;;;;;;;4947078;28;20106;-67
2021/04/01 04:24:59;;;;;;;3.72;2.65;;;;;;;;;;4947752;29;20032;-66
2021/04/01 04:30:02;;;;;;;;;;;;;;;;;;4947583;29;20376;-66
2021/04/01 04:32:28;;;;;;;9.70;3.47;;;;;;;;;;4946287;29;20382;-67
2021/04/01 04:34:53;;;;;;;5.38;2.58;;;;;;;;;;4943945;29;20067;-66
2021/04/01 04:37:18;;;;;;;2.97;2.22;;;;;;;;;;4948245;28;20039;-66
2021/04/01 04:39:44;;;;;;;4.95;2.47;;;;;;;;;;4942493;29;20047;-66
2021/04/01 04:42:09;;;;;;;2.35;1.95;;;;;;;;;;4948081;28;20028;-66
2021/04/01 04:44:34;;;;;;;8.18;2.38;;;;;;;;;;4940793;29;20035;-66
2021/04/01 04:47:00;;;;;;;2.33;2.10;;;;;;;;;;4945287;29;20027;-66
2021/04/01 04:49:25;;;;;;;6.07;3.67;;;;;;;;;;4945151;28;20534;-66
2021/04/01 04:51:50;;;;;;;3.33;1.55;;;;;;;;;;4945766;29;20127;-66
2021/04/01 04:54:16;;;;;;;4.47;2.00;;;;;;;;;;4947264;29;20054;-66
2021/04/01 04:56:41;;;;;;;5.43;4.20;;;;;;;;;;4939861;28;20036;-67
2021/04/01 04:59:19;;;;;;;3.22;2.63;;;;;;;;;;4939790;29;20083;-66
2021/04/01 05:04:51;;;;;;;7.10;5.15;;;;;;;;;;4946903;29;20030;-67
2021/04/01 05:07:16;;;;;;;9.07;5.25;;;;;;;;;;4941374;29;20050;-66
2021/04/01 05:09:42;;;;;;;6.13;5.07;;;;;;;;;;4943647;28;20369;-67
2021/04/01 05:12:08;;;;;;;4.50;3.50;;;;;;;;;;4946269;28;20109;-66
2021/04/01 05:14:33;;;;;;;7.75;3.85;;;;;;;;;;4945986;28;20106;-66
2021/04/01 05:16:58;;;;;;;3.90;2.78;;;;;;;;;;4946537;29;20039;-66
2021/04/01 05:19:25;;;;;;;7.20;3.15;;;;;;;;;;4941338;28;20023;-66
2021/04/01 05:24:37;;;;;;;4.43;2.70;;;;;;;;;;4945594;29;20078;-66
2021/04/01 05:27:47;;;;;;;7.32;3.35;;;;;;;;;;4941660;29;20031;-65
2021/04/01 05:30:01;;;;;;;5.30;4.28;;;;;;;;;;4935283;29;20507;-66
2021/04/01 05:32:28;;;;;;;10.68;5.25;;;;;;;;;;4945951;28;20042;-67
2021/04/01 05:34:54;;;;;;;6.22;4.47;;;;;;;;;;4945770;29;20015;-66
2021/04/01 05:37:22;;;;;;;5.70;3.55;;;;;;;;;;4947398;28;20038;-66
2021/04/01 05:39:48;;;;;;;5.00;3.72;;;;;;;;;;4944692;29;20106;-66
2021/04/01 05:42:15;;;;;;;4.40;3.13;;;;;;;;;;4947374;28;20027;-66
2021/04/01 05:44:43;;;;;;;4.47;2.67;;;;;;;;;;4943023;29;20079;-66
2021/04/01 05:55:24;;;;;;;10.40;3.38;;;;;;;;;;4937818;29;20039;-68
2021/04/01 05:58:10;;;;;;;8.35;4.35;;;;;;;;;;4939112;29;20449;-68
2021/04/01 06:05:51;;;;;;;6.03;4.57;;;;;;;;;;4940276;29;20042;-62
2021/04/01 06:08:21;;;;;;;9.48;7.13;;;;;;;;;;4943803;29;20043;-62
2021/04/01 06:10:49;;;;;;;9.88;4.95;;;;;;;;;;4941665;29;20475;-62
2021/04/01 06:13:15;;;;;;;10.57;7.53;;;;;;;;;;4944578;28;20114;-62
2021/04/01 06:15:48;;;;;;;5.55;4.80;;;;;;;;;;4941968;28;20028;-62
2021/04/01 06:18:14;;;;;;;5.03;3.25;;;;;;;;;;4945799;29;20038;-61
2021/04/01 06:20:41;;;;;;;6.03;2.95;;;;;;;;;;4944264;28;20046;-62
2021/04/01 06:23:06;;;;;;;3.92;3.13;;;;;;;;;;4946696;29;20031;-62
2021/04/01 06:25:36;;;;;;;8.38;6.30;;;;;;;;;;4941321;28;20035;-68
2021/04/01 06:28:04;;;;;;;8.77;7.30;;;;;;;;;;4945292;29;20035;-68
2021/04/01 06:30:37;;;;;;;17.25;8.63;;;;;;;;;;4945483;28;20466;-68
2021/04/01 06:33:11;;;;;;;14.60;7.18;;;;;;;;;;4946257;29;20047;-68
2021/04/01 06:35:43;;;;;;;9.55;7.28;;;;;;;;;;4939351;28;20023;-68
2021/04/01 06:40:39;;;;;;;12.00;7.82;;;;;;;;;;4944494;28;20387;-68
2021/04/01 06:43:17;;;;;;;7.78;5.25;;;;;;;;;;4946415;28;20152;-68
2021/04/01 06:45:46;;;;;;;8.20;5.97;;;;;;;;;;4947203;28;20419;-68
2021/04/01 06:48:13;;;;;;;35.15;19.48;;;;;;;;;;4950361;28;20063;-69
2021/04/01 06:50:40;;;;;;;25.00;13.68;;;;;;;;;;4947741;28;20019;-68
2021/04/01 06:53:15;;;;;;;61.55;48.17;;;;;;;;;;4949772;29;20246;-68
2021/04/01 06:55:47;;;;;;;33.65;28.08;;;;;;;;;;4940621;29;20329;-68
2021/04/01 07:03:28;;;;;;;47.03;33.25;;;;;;;;;;4949553;28;20054;-68
2021/04/01 07:08:30;;;;;;;46.80;27.88;;;;;;;;;;4950129;28;20526;-68
2021/04/01 07:13:25;;;;;;;40.83;30.48;;;;;;;;;;4950037;28;20035;-68
2021/04/01 07:15:56;;;;;;;42.08;35.13;;;;;;;;;;4947621;29;20478;-68
2021/04/01 07:21:24;;;;;;;39.03;28.77;;;;;;;;;;4947477;29;20032;-64
2021/04/01 07:30:43;;;;;;;42.40;25.05;;;;;;;;;;4945098;29;20074;-64
2021/04/01 07:48:43;;;;;;;25.60;20.42;;;;;;;;;;4948627;29;20046;-69
2021/04/01 07:51:19;;;;;;;24.23;21.73;;;;;;;;;;4945378;29;20031;-71
2021/04/01 07:53:51;;;;;;;24.42;21.63;;;;;;;;;;4943005;29;20212;-71
2021/04/01 07:56:20;;;;;;;43.17;36.88;;;;;;;;;;4942168;28;20016;-70
2021/04/01 08:01:36;;;;;;;23.67;21.27;;;;;;;;;;4947858;28;20107;-64
2021/04/01 08:04:03;;;;;;;39.92;28.83;;;;;;;;;;4947050;29;20040;-65
2021/04/01 08:06:29;;;;;;;18.42;13.30;;;;;;;;;;4945233;28;20030;-63
2021/04/01 08:08:57;;;;;;;9.25;7.72;;;;;;;;;;4947455;28;20028;-69
2021/04/01 08:11:28;;;;;;;14.15;9.20;;;;;;;;;;4950338;28;20023;-71
2021/04/01 08:14:23;;;;;;;12.50;8.43;;;;;;;;;;4950522;29;20031;-69
2021/04/01 08:19:22;;;;;;;12.80;9.15;;;;;;;;;;4947832;28;20517;-62
2021/04/01 08:21:49;;;;;;;20.50;17.17;;;;;;;;;;4944600;29;20039;-64
2021/04/01 08:24:27;;;;;;;12.65;8.77;;;;;;;;;;4946018;28;20418;-63
2021/04/01 08:32:59;;;;;;;4.43;2.53;;;;;;;;;;4941777;29;20034;-62
2021/04/01 08:35:11;;;;;;;7.20;5.65;;;;;;;;;;4947522;29;20050;-62
2021/04/01 08:37:37;;;;;;;10.73;3.63;;;;;;;;;;4946287;28;20054;-63
2021/04/01 08:40:03;;;;;;;8.98;4.93;;;;;;;;;;4946116;29;20062;-62
2021/04/01 08:42:34;;;;;;;12.40;4.47;;;;;;;;;;4943573;28;20391;-63
2021/04/01 08:45:05;;;;;;;7.95;4.95;;;;;;;;;;4945955;29;20027;-62
2021/04/01 08:47:30;;;;;;;;;;;;;;;;;;4947192;28;20035;-63
2021/04/01 08:50:03;;;;;;;8.07;5.23;;;;;;;;;;4942432;29;20298;-63
2021/04/01 08:52:28;;;;;;;10.23;6.85;;;;;;;;;;4942502;29;20036;-62
2021/04/01 08:54:59;;;;;;;7.13;5.53;;;;;;;;;;4945713;29;20020;-63
2021/04/01 08:57:37;;;;;;;10.20;7.75;;;;;;;;;;4947745;28;20434;-68
2021/04/01 09:00:28;;;;;;;7.13;4.47;;;;;;;;;;4945066;29;20801;-68
2021/04/01 09:02:55;;;;;;;7.07;4.85;;;;;;;;;;4903232;29;20497;-68
2021/04/01 09:05:20;;;;;;;8.57;6.00;;;;;;;;;;4899102;29;20495;-68
2021/04/01 09:07:46;;;;;;;6.75;4.40;;;;;;;;;;4884453;29;20110;-68
2021/04/01 09:10:33;;;;;;;14.55;6.95;;;;;;;;;;4897464;29;20024;-68
2021/04/01 09:18:01;;;;;;;10.73;6.20;;;;;;;;;;4900591;29;20059;-68
2021/04/01 09:20:27;;;;;;;11.52;5.32;;;;;;;;;;4900409;29;20040;-68
2021/04/01 09:22:59;;;;;;;10.57;5.80;;;;;;;;;;4901386;29;20183;-69
2021/04/01 09:25:54;;;;;;;17.75;10.80;;;;;;;;;;4902907;29;20275;-69
2021/04/01 09:28:28;;;;;;;4.18;2.63;;;;;;;;;;4883517;29;20525;-71
2021/04/01 09:30:57;;;;;;;8.77;4.43;;;;;;;;;;4897700;29;20473;-71
2021/04/01 09:33:26;;;;;;;9.15;5.15;;;;;;;;;;4912813;29;20051;-71
2021/04/01 09:35:52;;;;;;;5.78;4.30;;;;;;;;;;4940478;29;20479;-71
2021/04/01 09:38:18;;;;;;;6.85;3.22;;;;;;;;;;4940550;28;20039;-70
2021/04/01 09:40:44;;;;;;;6.18;4.10;;;;;;;;;;4940445;29;20361;-70
2021/04/01 09:43:14;;;;;;;3.60;2.22;;;;;;;;;;4939294;29;20098;-70
2021/04/01 09:45:40;;;;;;;6.18;3.83;;;;;;;;;;4937310;29;20036;-70
2021/04/01 09:48:09;;;;;;;7.20;4.15;;;;;;;;;;4943786;29;20039;-70
2021/04/01 09:50:35;;;;;;;13.85;4.72;;;;;;;;;;4941928;28;20031;-70
2021/04/01 09:53:02;;;;;;;12.77;3.42;;;;;;;;;;4935365;29;20036;-70
2021/04/01 09:55:39;;;;;;;5.88;3.13;;;;;;;;;;4939797;28;20498;-70
2021/04/01 09:58:17;;;;;;;6.75;6.10;;;;;;;;;;4940628;29;20050;-70
2021/04/01 10:03:37;;;;;;;8.35;3.38;;;;;;;;;;4904638;28;20477;-70
2021/04/01 10:06:02;;;;;;;16.30;4.10;;;;;;;;;;4942330;29;20028;-70
2021/04/01 10:08:29;;;;;;;4.75;3.72;;;;;;;;;;4939570;28;20043;-69
2021/04/01 10:10:56;;;;;;;9.15;2.67;;;;;;;;;;4937421;29;20039;-70
2021/04/01 10:13:25;;;;;;;3.20;1.75;;;;;;;;;;4931717;28;20034;-70
2021/04/01 10:15:51;;;;;;;2.80;2.08;;;;;;;;;;4932343;29;20031;-69
2021/04/01 10:18:18;;;;;;;7.78;3.15;;;;;;;;;;4938084;28;20763;-70
2021/04/01 10:20:53;;;;;;;4.95;2.15;;;;;;;;;;4937328;29;20069;-70
2021/04/01 10:23:19;;;;;;;3.95;2.83;;;;;;;;;;4943459;29;20062;-70
2021/04/01 10:25:56;;;;;;;4.15;2.88;;;;;;;;;;4923939;29;20509;-70
2021/04/01 10:28:32;;;;;;;5.10;3.00;;;;;;;;;;4940260;28;20454;-69
2021/04/01 10:30:58;;;;;;;6.72;2.45;;;;;;;;;;4939835;29;20043;-69
2021/04/01 10:33:32;;;;;;;5.78;2.80;;;;;;;;;;4943280;28;20191;-70
2021/04/01 10:35:59;;;;;;;6.93;3.15;;;;;;;;;;4938507;29;20036;-69
2021/04/01 10:38:27;;;;;;;12.98;3.05;;;;;;;;;;4936863;29;20379;-69
2021/04/01 10:40:54;;;;;;;4.78;2.72;;;;;;;;;;4941248;29;20032;-69
2021/04/01 10:43:20;;;;;;;3.80;2.13;;;;;;;;;;4943417;28;20499;-70
2021/04/01 10:45:46;;;;;;;5.53;2.85;;;;;;;;;;4939125;29;20122;-70
2021/04/01 10:48:30;;;;;;;30.08;4.15;;;;;;;;;;4936810;29;20057;-69
2021/04/01 10:51:03;;;;;;;3.70;2.85;;;;;;;;;;4933914;29;20039;-70
2021/04/01 10:53:28;;;;;;;6.72;4.15;;;;;;;;;;4937630;29;20040;-69
2021/04/01 10:56:00;;;;;;;7.75;2.63;;;;;;;;;;4939222;29;20498;-69
2021/04/01 10:58:26;;;;;;;6.20;2.35;;;;;;;;;;4942514;28;20035;-69
2021/04/01 11:00:52;;;;;;;5.55;2.22;;;;;;;;;;4940724;29;20102;-68
2021/04/01 11:03:20;;;;;;;7.15;2.95;;;;;;;;;;4940695;28;20683;-68
2021/04/01 11:05:46;;;;;;;4.95;2.38;;;;;;;;;;4937054;29;20033;-69
2021/04/01 11:08:11;;;;;;;10.85;2.80;;;;;;;;;;4943246;28;20039;-69
2021/04/01 11:10:37;;;;;;;7.30;2.83;;;;;;;;;;4940406;28;20034;-69
2021/04/01 11:13:04;;;;;;;6.13;3.33;;;;;;;;;;4942648;29;20039;-69
2021/04/01 11:15:30;;;;;;;5.68;3.50;;;;;;;;;;4941510;29;20153;-68
2021/04/01 11:18:05;;;;;;;11.75;3.80;;;;;;;;;;4939225;29;20487;-69
2021/04/01 11:20:33;;;;;;;4.50;2.90;;;;;;;;;;4938703;28;20035;-68
2021/04/01 11:23:04;;;;;;;15.55;3.83;;;;;;;;;;4941831;29;20340;-69
2021/04/01 11:25:29;;;;;;;7.20;4.65;;;;;;;;;;4937748;28;20039;-69
2021/04/01 11:27:55;;;;;;;6.78;3.97;;;;;;;;;;4936719;29;20391;-69
2021/04/01 11:30:21;;;;;;;5.70;3.25;;;;;;;;;;4942794;28;20043;-69
2021/04/01 11:32:54;;;;;;;7.68;2.63;;;;;;;;;;4938170;29;20730;-69
2021/04/01 11:35:21;;;;;;;3.28;1.85;;;;;;;;;;4940789;28;20390;-68
2021/04/01 11:37:48;;;;;;;6.03;2.95;;;;;;;;;;4940593;29;20095;-68
2021/04/01 11:40:14;;;;;;;7.20;2.40;;;;;;;;;;4946304;28;20110;-70
2021/04/01 11:42:39;;;;;;;4.70;2.67;;;;;;;;;;4943804;28;20123;-69
2021/04/01 11:45:07;;;;;;;6.05;3.03;;;;;;;;;;4945536;29;20148;-68
2021/04/01 11:47:33;;;;;;;8.18;2.30;;;;;;;;;;4944310;28;20726;-68
2021/04/01 11:50:02;;;;;;;9.60;3.05;;;;;;;;;;4942295;29;20028;-68
2021/04/01 11:52:27;;;;;;;5.15;1.95;;;;;;;;;;4939939;29;20035;-68
2021/04/01 11:54:53;;;;;;;15.80;2.45;;;;;;;;;;4942473;29;20027;-68
2021/04/01 11:57:29;;;;;;;2.92;1.88;;;;;;;;;;4945895;28;20031;-68
2021/04/01 12:00:02;;;;;;;4.82;1.70;;;;;;;;;;4940334;29;20479;-68
2021/04/01 12:02:29;;;;;;;9.50;3.33;;;;;;;;;;4936703;29;20545;-68
2021/04/01 12:04:58;;;;;;;8.57;4.43;;;;;;;;;;4942172;29;20049;-69
2021/04/01 12:07:24;;;;;;;2.58;1.48;;;;;;;;;;4935160;29;20123;-68
2021/04/01 12:09:49;;;;;;;16.38;10.98;;;;;;;;;;4937939;29;20108;-69
2021/04/01 12:12:25;;;;;;;8.77;3.58;;;;;;;;;;4945823;28;20038;-69
2021/04/01 12:14:50;;;;;;;5.47;3.42;;;;;;;;;;4939446;29;20019;-69
2021/04/01 12:17:16;;;;;;;6.45;4.78;;;;;;;;;;4945627;28;20039;-68
2021/04/01 12:19:41;;;;;;;4.88;4.43;;;;;;;;;;4940447;28;20031;-69
2021/04/01 12:22:07;;;;;;;4.60;2.83;;;;;;;;;;4945439;29;20595;-68
2021/04/01 12:24:32;;;;;;;4.28;2.70;;;;;;;;;;4939268;28;20031;-68
2021/04/01 12:26:58;;;;;;;10.13;3.05;;;;;;;;;;4940715;29;20100;-67
2021/04/01 12:29:23;;;;;;;4.22;2.90;;;;;;;;;;4930631;29;20031;-69
2021/04/01 12:31:54;;;;;;;4.85;2.47;;;;;;;;;;4940356;29;20052;-68
2021/04/01 12:34:24;;;;;;;3.47;1.92;;;;;;;;;;4943120;28;20023;-69
2021/04/01 12:36:50;;;;;;;5.70;3.80;;;;;;;;;;4937008;29;20043;-68
2021/04/01 12:39:15;;;;;;;4.53;2.95;;;;;;;;;;4943844;28;20039;-68
2021/04/01 12:41:43;;;;;;;6.35;3.33;;;;;;;;;;4942461;28;20503;-68
2021/04/01 12:44:08;;;;;;;11.38;4.20;;;;;;;;;;4936589;29;20031;-68
2021/04/01 12:46:44;;;;;;;4.82;2.22;;;;;;;;;;4939100;29;20043;-68
2021/04/01 12:49:11;;;;;;;5.05;1.52;;;;;;;;;;4940643;29;20027;-69
2021/04/01 12:51:56;;;;;;;2.60;2.00;;;;;;;;;;4942742;28;20039;-70
2021/04/01 12:54:26;;;;;;;2.75;1.58;;;;;;;;;;4938625;29;20023;-69
2021/04/01 12:57:04;;;;;;;4.90;2.65;;;;;;;;;;4942830;29;20031;-68
2021/04/01 12:59:48;;;;;;;4.30;2.50;;;;;;;;;;4940051;28;20407;-68
2021/04/01 13:02:16;;;;;;;16.55;7.38;;;;;;;;;;4937098;29;20138;-68
2021/04/01 13:04:43;;;;;;;5.65;4.60;;;;;;;;;;4940700;28;20071;-68
2021/04/01 13:09:48;;;;;;;2.97;2.53;;;;;;;;;;4938801;28;20104;-68
2021/04/01 13:12:15;;;;;;;2.88;1.90;;;;;;;;;;4931640;29;20038;-69
2021/04/01 13:14:41;;;;;;;1.88;1.23;;;;;;;;;;4941599;28;20055;-69
2021/04/01 13:17:07;;;;;;;3.58;2.08;;;;;;;;;;4944169;29;20085;-70
2021/04/01 13:19:33;;;;;;;4.00;2.50;;;;;;;;;;4939655;28;20486;-70
2021/04/01 13:24:40;;;;;;;5.88;2.85;;;;;;;;;;4940249;29;20086;-70
2021/04/01 13:27:08;;;;;;;4.40;2.45;;;;;;;;;;4944016;29;20046;-69
2021/04/01 13:29:34;;;;;;;4.30;1.88;;;;;;;;;;4938726;28;20058;-69
2021/04/01 13:39:37;;;;;;;2.45;1.40;;;;;;;;;;4937870;29;20471;-71
2021/04/01 13:42:25;;;;;;;2.35;1.63;;;;;;;;;;4943277;29;20495;-70
2021/04/01 13:44:56;;;;;;;5.85;1.85;;;;;;;;;;4939442;29;20166;-70
2021/04/01 13:47:22;;;;;;;;;;;;;;;;;;4944437;28;20069;-69
2021/04/01 13:49:49;;;;;;;3.63;2.53;;;;;;;;;;4939174;29;20696;-70
2021/04/01 13:52:24;;;;;;;4.07;1.35;;;;;;;;;;4944140;28;20118;-70
2021/04/01 14:11:06;;;;;;;9.57;2.58;;;;;;;;;;4943206;29;20038;-69
2021/04/01 14:13:32;;;;;;;3.92;1.98;;;;;;;;;;4942612;28;20031;-69
2021/04/01 14:15:57;;;;;;;4.13;1.13;;;;;;;;;;4942039;29;20043;-68
2021/04/01 14:18:23;;;;;;;4.05;1.77;;;;;;;;;;4941722;28;20046;-68
2021/04/01 14:20:49;;;;;;;2.42;1.50;;;;;;;;;;4940452;29;20030;-69
2021/04/01 14:23:19;;;;;;;2.47;1.85;;;;;;;;;;4943540;28;20055;-67
2021/04/01 14:25:46;;;;;;;2.20;1.40;;;;;;;;;;4937214;29;20492;-68
2021/04/01 14:28:11;;;;;;;3.15;1.55;;;;;;;;;;4939346;28;20039;-68
2021/04/01 14:30:37;;;;;;;2.90;1.85;;;;;;;;;;4940129;28;20024;-68
2021/04/01 14:33:02;;;;;;;3.95;2.28;;;;;;;;;;4934543;29;20031;-65
2021/04/01 14:35:29;;;;;;;3.42;1.98;;;;;;;;;;4939891;28;20195;-68
2021/04/01 14:37:58;;;;;;;7.10;3.28;;;;;;;;;;4941874;29;20084;-68
2021/04/01 14:40:27;;;;;;;3.83;1.63;;;;;;;;;;4940430;28;20082;-70
2021/04/01 14:42:52;;;;;;;2.65;1.60;;;;;;;;;;4941630;29;20543;-69
2021/04/01 14:45:18;;;;;;;4.22;2.60;;;;;;;;;;4936978;28;20027;-68
2021/04/01 14:47:43;;;;;;;1.80;0.98;;;;;;;;;;4932919;29;20037;-68
2021/04/01 14:50:09;;;;;;;4.22;1.40;;;;;;;;;;4935111;28;20023;-68
2021/04/01 14:52:36;;;;;;;13.55;4.03;;;;;;;;;;4940770;28;20375;-68
2021/04/01 14:55:03;;;;;;;6.32;3.10;;;;;;;;;;4935042;29;20024;-68
2021/04/01 14:57:29;;;;;;;5.72;2.17;;;;;;;;;;4942062;28;20164;-67
2021/04/01 14:59:55;;;;;;;4.05;3.22;;;;;;;;;;4939718;29;20057;-67
2021/04/01 15:02:21;;;;;;;4.28;1.38;;;;;;;;;;4940299;28;20546;-68
2021/04/01 15:04:46;;;;;;;3.30;2.13;;;;;;;;;;4938192;28;20123;-69
2021/04/01 15:07:12;;;;;;;4.00;2.78;;;;;;;;;;4946865;28;20139;-68
2021/04/01 15:09:37;;;;;;;5.45;4.32;;;;;;;;;;4944625;28;20031;-68
2021/04/01 15:12:03;;;;;;;11.55;2.83;;;;;;;;;;4939255;29;20031;-68
2021/04/01 15:14:28;;;;;;;5.45;1.65;;;;;;;;;;4944485;28;20447;-69
2021/04/01 15:16:55;;;;;;;2.33;1.45;;;;;;;;;;4943360;29;20039;-69
2021/04/01 15:19:21;;;;;;;5.03;2.17;;;;;;;;;;4941717;28;20023;-68
2021/04/01 15:21:46;;;;;;;4.18;1.88;;;;;;;;;;4939557;29;20079;-69
2021/04/01 15:24:12;;;;;;;10.05;5.72;;;;;;;;;;4943001;28;20035;-69
2021/04/01 15:26:38;;;;;;;6.22;2.80;;;;;;;;;;4939762;28;20715;-69
2021/04/01 15:29:03;;;;;;;4.35;2.78;;;;;;;;;;4939645;29;20430;-69
2021/04/01 15:31:28;;;;;;;6.22;1.95;;;;;;;;;;4945144;28;20074;-69
2021/04/01 15:33:54;;;;;;;19.42;2.45;;;;;;;;;;4942428;29;20023;-69
2021/04/01 15:36:19;;;;;;;6.13;1.75;;;;;;;;;;4943745;28;20019;-69
2021/04/01 15:38:45;;;;;;;4.05;2.10;;;;;;;;;;4937357;29;20522;-69
2021/04/01 15:41:11;;;;;;;2.97;1.70;;;;;;;;;;4940604;28;20771;-68
2021/04/01 15:43:36;;;;;;;4.40;1.60;;;;;;;;;;4943995;28;20506;-68
2021/04/01 15:46:02;;;;;;;6.05;2.13;;;;;;;;;;4939146;29;20028;-68
2021/04/01 15:48:27;;;;;;;16.33;2.40;;;;;;;;;;4940330;28;20062;-68
2021/04/01 15:50:53;;;;;;;7.65;2.83;;;;;;;;;;4943820;29;20020;-68
2021/04/01 15:53:18;;;;;;;10.13;2.00;;;;;;;;;;4945823;28;20031;-68
2021/04/01 15:55:45;;;;;;;5.18;1.92;;;;;;;;;;4942825;28;20030;-69
2021/04/01 15:58:10;;;;;;;8.10;2.45;;;;;;;;;;4946236;28;20073;-69
2021/04/01 16:00:38;;;;;;;6.72;1.90;;;;;;;;;;4942312;29;20027;-69
2021/04/01 16:03:03;;;;;;;7.78;4.35;;;;;;;;;;4944527;29;20055;-68
2021/04/01 16:05:28;;;;;;;5.47;2.72;;;;;;;;;;4944566;28;20046;-68
2021/04/01 16:07:54;;;;;;;2.25;1.85;;;;;;;;;;4942636;29;20462;-68
2021/04/01 16:10:19;;;;;;;5.57;1.80;;;;;;;;;;4945432;28;20035;-68
2021/04/01 16:12:44;;;;;;;3.28;1.80;;;;;;;;;;4942791;28;20027;-69
2021/04/01 16:15:10;;;;;;;11.02;3.08;;;;;;;;;;4945333;28;20198;-69
2021/04/01 16:17:35;;;;;;;14.48;2.58;;;;;;;;;;4942865;28;20753;-69
2021/04/01 16:20:01;;;;;;;4.78;1.77;;;;;;;;;;4939653;29;20035;-69
2021/04/01 16:22:26;;;;;;;1.90;1.55;;;;;;;;;;4942597;28;20032;-68
2021/04/01 16:24:51;;;;;;;8.85;1.70;;;;;;;;;;4941066;29;20047;-69
2021/04/01 16:27:16;;;;;;;2.33;1.60;;;;;;;;;;4943276;28;20506;-68
2021/04/01 16:29:42;;;;;;;4.43;2.28;;;;;;;;;;4939205;29;20042;-68
2021/04/01 16:32:07;;;;;;;5.35;2.28;;;;;;;;;;4945210;29;20063;-70
2021/04/01 16:34:33;;;;;;;3.63;2.65;;;;;;;;;;4942206;28;20031;-68
2021/04/01 16:36:59;;;;;;;2.35;1.17;;;;;;;;;;4943446;29;20039;-68